Cottageville, West Virginia
Current Conditions -  °F | °C
As of 1:55 PM on Sunday 23 Nov 2014 (Local Time) from K3I2 Reporting Station
Clear Clear  
Wind Chill: 68°   Ceiling: Unl
Heat Index: 68°   Visibility: 10mi
Dew Point: 37°   Wind: 8mph
Humidity: 33%   Direction: 110°ESE
Pressure: 29.85"   Gusts: 16mph
Location:  38.87°N, 81.82°W
Report Text: K3I2 231855Z AUTO 11007G14KT 10SM CLR 20/03 A2985 RMK AO2
Loading
Personal Weather Stations






























Interactive Weather Map New forecast layout! Learn more

10-Day Weather Forecast

Advertisements
Track Severe Weather on mobile